createdAt,value
2022-10-31T00:00:09.740Z,28.73
2022-10-31T00:02:59.328Z,17.25
2022-10-31T00:05:49.519Z,25.52
2022-10-31T00:08:36.367Z,16.67
2022-10-31T00:11:23.678Z,16.63
2022-10-31T00:14:12.256Z,20.83
2022-10-31T00:16:59.431Z,18.58
2022-10-31T00:19:46.831Z,22.73
2022-10-31T00:22:33.990Z,22.15
2022-10-31T00:25:21.776Z,16.90
2022-10-31T00:28:09.883Z,16.58
2022-10-31T00:31:01.150Z,18.20
2022-10-31T00:33:48.320Z,16.77
2022-10-31T00:36:37.911Z,17.05
2022-10-31T00:39:24.856Z,22.40
2022-10-31T00:42:11.752Z,17.45
2022-10-31T00:44:58.921Z,16.98
2022-10-31T00:47:47.435Z,20.88
2022-10-31T00:50:34.474Z,21.30
2022-10-31T00:53:21.904Z,16.83
2022-10-31T00:56:09.993Z,20.85
2022-10-31T00:58:57.214Z,17.38
2022-10-31T01:01:44.540Z,18.70
2022-10-31T01:04:33.077Z,24.70
2022-10-31T01:07:20.150Z,18.73
2022-10-31T01:10:08.110Z,17.80
2022-10-31T01:12:55.248Z,19.95
2022-10-31T01:15:43.147Z,17.38
2022-10-31T01:18:30.698Z,21.08
2022-10-31T01:21:20.989Z,17.80
2022-10-31T01:24:10.917Z,19.85
2022-10-31T01:26:59.149Z,20.73
2022-10-31T01:29:46.197Z,20.13
2022-10-31T01:32:33.463Z,22.85
2022-10-31T01:35:20.571Z,14.18
2022-10-31T01:38:09.411Z,19.75
2022-10-31T01:40:56.333Z,13.75
2022-10-31T01:43:50.837Z,16.23
2022-10-31T01:46:43.082Z,11.88
2022-10-31T01:49:36.354Z,17.88
2022-10-31T01:52:27.306Z,20.10
2022-10-31T01:55:19.805Z,14.40
2022-10-31T01:58:11.718Z,12.48
2022-10-31T02:01:05.024Z,17.75
2022-10-31T02:03:57.841Z,18.83
2022-10-31T02:06:50.992Z,21.63
2022-10-31T02:09:39.801Z,22.48
2022-10-31T02:12:28.335Z,20.77
2022-10-31T02:15:18.916Z,15.75
2022-10-31T02:18:07.807Z,15.82
2022-10-31T02:21:04.529Z,14.63
2022-10-31T02:24:17.525Z,13.13
2022-10-31T02:27:12.368Z,19.10
2022-10-31T02:30:09.725Z,23.10
2022-10-31T02:33:17.826Z,22.15
2022-10-31T02:36:11.896Z,14.00
2022-10-31T02:39:12.467Z,12.80
2022-10-31T02:42:10.086Z,11.93
2022-10-31T02:45:08.880Z,18.38
2022-10-31T02:47:59.919Z,13.30
2022-10-31T02:50:56.130Z,14.65
2022-10-31T02:53:43.359Z,13.48
2022-10-31T02:56:30.543Z,22.50
2022-10-31T02:59:18.360Z,16.35
2022-10-31T03:02:20.761Z,27.65
2022-10-31T03:05:22.236Z,28.30
2022-10-31T03:08:17.387Z,19.33
2022-10-31T03:11:06.960Z,19.30
2022-10-31T03:14:02.955Z,16.70
2022-10-31T03:16:52.537Z,11.85
2022-10-31T03:19:45.072Z,11.73
2022-10-31T03:22:35.097Z,14.80
2022-10-31T03:25:24.556Z,13.68
2022-10-31T03:28:20.328Z,14.13
2022-10-31T03:31:08.544Z,11.30
2022-10-31T03:34:00.929Z,11.23
2022-10-31T03:36:54.287Z,12.75
2022-10-31T03:39:45.818Z,13.57
2022-10-31T03:42:37.247Z,9.38
2022-10-31T03:45:27.411Z,13.77
2022-10-31T03:48:15.927Z,13.65
2022-10-31T03:51:12.844Z,15.13
2022-10-31T03:54:05.428Z,11.25
2022-10-31T03:56:57.132Z,14.52
2022-10-31T03:59:49.919Z,13.40
2022-10-31T04:02:42.877Z,11.77
2022-10-31T04:05:33.342Z,10.43
2022-10-31T04:08:26.689Z,12.50
2022-10-31T04:11:18.891Z,13.27
2022-10-31T04:14:10.771Z,22.67
2022-10-31T04:17:00.151Z,22.10
2022-10-31T04:19:55.042Z,14.57
2022-10-31T04:22:42.346Z,10.65
2022-10-31T04:25:30.045Z,14.63
2022-10-31T04:31:06.973Z,12.75
2022-10-31T04:33:59.030Z,17.33
2022-10-31T04:36:45.896Z,10.68
2022-10-31T04:39:36.025Z,11.77
2022-10-31T04:42:43.005Z,15.57
2022-10-31T04:45:30.945Z,15.60
2022-10-31T04:48:18.149Z,12.55
2022-10-31T04:51:07.189Z,14.77
2022-10-31T04:53:54.459Z,13.38
2022-10-31T04:56:49.200Z,12.10
2022-10-31T04:59:42.210Z,12.50
2022-10-31T05:02:30.492Z,14.52
2022-10-31T05:05:22.219Z,10.95
2022-10-31T05:08:10.619Z,13.93
2022-10-31T05:11:04.436Z,8.98
2022-10-31T05:13:52.610Z,14.82
2022-10-31T05:16:59.692Z,12.10
2022-10-31T05:20:07.413Z,12.40
2022-10-31T05:23:14.943Z,13.23
2022-10-31T05:26:02.331Z,12.02
2022-10-31T05:28:49.354Z,8.93
2022-10-31T05:31:36.373Z,11.25
2022-10-31T05:34:25.734Z,12.65
2022-10-31T05:37:33.204Z,12.43
2022-10-31T05:40:22.945Z,16.02
2022-10-31T05:43:10.022Z,13.75
2022-10-31T05:45:58.293Z,18.42
2022-10-31T05:49:05.394Z,12.75
2022-10-31T05:52:12.354Z,19.60
2022-10-31T05:54:59.508Z,12.43
2022-10-31T05:57:47.824Z,18.23
2022-10-31T06:00:36.111Z,15.82
2022-10-31T06:03:27.787Z,15.13
2022-10-31T06:06:16.965Z,14.13
2022-10-31T06:09:04.362Z,13.20
2022-10-31T06:11:58.822Z,12.38
2022-10-31T06:14:46.978Z,12.88
2022-10-31T06:17:35.296Z,13.85
2022-10-31T06:20:42.417Z,13.60
2022-10-31T06:23:29.328Z,13.25
2022-10-31T06:26:36.631Z,10.82
2022-10-31T06:29:23.511Z,26.45
2022-10-31T06:32:22.960Z,21.67
2022-10-31T06:35:10.541Z,19.88
2022-10-31T06:37:57.772Z,13.93
2022-10-31T06:41:05.909Z,18.80
2022-10-31T06:44:08.035Z,14.70
2022-10-31T06:47:16.047Z,15.00
2022-10-31T06:50:18.492Z,16.38
2022-10-31T06:53:07.209Z,13.18
2022-10-31T06:55:54.336Z,21.52
2022-10-31T06:58:43.745Z,12.10
2022-10-31T07:01:32.441Z,15.88
2022-10-31T07:04:20.168Z,10.13
2022-10-31T07:07:09.846Z,14.75
2022-10-31T07:09:58.496Z,12.27
2022-10-31T07:13:04.583Z,15.30
2022-10-31T07:15:55.451Z,12.05
2022-10-31T07:18:43.053Z,10.55
2022-10-31T07:21:32.097Z,16.52
2022-10-31T07:24:22.838Z,13.65
2022-10-31T07:27:29.749Z,17.05
2022-10-31T07:30:19.651Z,13.05
2022-10-31T07:33:11.267Z,18.65
2022-10-31T07:36:18.186Z,21.30
2022-10-31T07:39:06.938Z,16.80
2022-10-31T07:42:00.532Z,12.57
2022-10-31T07:44:49.051Z,18.70
2022-10-31T07:47:57.862Z,12.52
2022-10-31T07:51:03.843Z,10.55
2022-10-31T07:53:54.394Z,15.18
2022-10-31T07:56:44.252Z,14.15
2022-10-31T07:59:32.855Z,12.88
2022-10-31T08:02:21.142Z,14.93
2022-10-31T08:05:28.203Z,15.00
2022-10-31T08:08:38.262Z,17.52
2022-10-31T08:11:28.255Z,16.25
2022-10-31T08:14:15.621Z,15.63
2022-10-31T08:17:04.242Z,16.42
2022-10-31T08:20:01.111Z,16.48
2022-10-31T08:22:58.818Z,18.02
2022-10-31T08:25:48.813Z,15.43
2022-10-31T08:28:35.946Z,14.05
2022-10-31T08:31:33.349Z,12.32
2022-10-31T08:34:43.402Z,11.18
2022-10-31T08:37:55.719Z,12.80
2022-10-31T08:43:30.309Z,21.23
2022-10-31T08:46:17.866Z,22.27
2022-10-31T08:49:05.601Z,18.13
2022-10-31T08:51:55.002Z,21.45
2022-10-31T08:54:41.982Z,19.13
2022-10-31T08:57:48.909Z,14.68
2022-10-31T09:00:36.749Z,21.40
2022-10-31T09:03:29.224Z,16.30
2022-10-31T09:06:16.586Z,22.67
2022-10-31T09:09:05.423Z,20.17
2022-10-31T09:11:52.891Z,23.25
2022-10-31T09:15:01.928Z,22.58
2022-10-31T09:17:59.367Z,21.60
2022-10-31T09:20:52.389Z,22.20
2022-10-31T09:23:39.735Z,24.67
2022-10-31T09:26:28.442Z,19.58
2022-10-31T09:29:19.338Z,21.67
2022-10-31T09:32:12.035Z,17.52
2022-10-31T09:35:06.188Z,23.02
2022-10-31T09:37:57.649Z,16.63
2022-10-31T09:40:48.258Z,16.23
2022-10-31T09:43:51.167Z,14.52
2022-10-31T09:46:49.409Z,16.50
2022-10-31T09:49:49.143Z,19.55
2022-10-31T09:52:39.031Z,19.02
2022-10-31T09:55:34.381Z,16.37
2022-10-31T09:58:26.721Z,10.00
2022-10-31T10:01:31.558Z,13.23
2022-10-31T10:04:33.530Z,13.85
2022-10-31T10:07:37.835Z,11.98
2022-10-31T10:10:52.491Z,13.98
2022-10-31T10:13:54.866Z,16.02
2022-10-31T10:17:19.643Z,16.85
2022-10-31T10:20:24.882Z,11.82
2022-10-31T10:23:26.044Z,13.27
2022-10-31T10:26:20.629Z,13.52
2022-10-31T10:29:29.226Z,12.75
2022-10-31T10:32:25.686Z,9.57
2022-10-31T10:35:21.392Z,11.18
2022-10-31T10:38:18.468Z,13.77
2022-10-31T10:41:12.314Z,15.55
2022-10-31T10:43:59.590Z,17.58
2022-10-31T10:47:07.910Z,13.52
2022-10-31T10:49:55.281Z,9.02
2022-10-31T10:52:51.075Z,11.98
2022-10-31T10:55:48.130Z,12.93
2022-10-31T10:58:35.068Z,13.60
2022-10-31T11:01:24.784Z,13.85
2022-10-31T11:04:33.363Z,12.85
2022-10-31T11:07:22.135Z,10.52
2022-10-31T11:10:16.518Z,9.82
2022-10-31T11:13:21.728Z,12.07
2022-10-31T11:16:11.996Z,11.02
2022-10-31T11:19:11.985Z,16.15
2022-10-31T11:22:10.018Z,12.20
2022-10-31T11:24:59.058Z,13.73
2022-10-31T11:27:45.994Z,10.25
2022-10-31T11:30:45.759Z,12.65
2022-10-31T11:33:36.592Z,12.27
2022-10-31T11:36:26.463Z,14.25
2022-10-31T11:39:21.496Z,12.75
2022-10-31T11:42:10.114Z,7.45
2022-10-31T11:44:58.482Z,10.73
2022-10-31T11:47:56.705Z,5.90
2022-10-31T11:50:53.132Z,16.75
2022-10-31T11:56:27.379Z,10.55
2022-10-31T11:59:24.782Z,11.43
2022-10-31T12:02:20.776Z,13.48
2022-10-31T12:05:21.987Z,13.48
2022-10-31T12:08:12.081Z,13.55
2022-10-31T12:11:06.528Z,15.15
2022-10-31T12:14:07.986Z,17.90
2022-10-31T12:17:07.812Z,9.73
2022-10-31T12:20:05.742Z,10.48
2022-10-31T12:23:03.650Z,14.85
2022-10-31T12:25:58.694Z,9.07
2022-10-31T12:29:00.101Z,10.93
2022-10-31T12:32:01.494Z,12.93
2022-10-31T12:35:01.251Z,12.07
2022-10-31T12:38:01.184Z,13.77
2022-10-31T12:41:08.109Z,18.30
2022-10-31T12:44:04.117Z,11.95
2022-10-31T12:47:04.162Z,14.50
2022-10-31T12:50:02.827Z,14.13
2022-10-31T12:53:03.251Z,13.45
2022-10-31T12:56:01.966Z,10.75
2022-10-31T12:58:57.792Z,9.95
2022-10-31T13:01:51.509Z,9.27
2022-10-31T13:04:46.029Z,15.10
2022-10-31T13:07:39.103Z,10.57
2022-10-31T13:13:20.777Z,10.25
2022-10-31T13:16:17.237Z,12.88
2022-10-31T13:19:11.168Z,11.73
2022-10-31T13:22:09.848Z,11.10
2022-10-31T13:25:01.466Z,10.52
2022-10-31T13:27:52.274Z,14.45
2022-10-31T13:30:42.677Z,14.20
2022-10-31T13:33:35.655Z,13.35
2022-10-31T13:36:31.037Z,11.70
2022-10-31T13:39:31.143Z,13.60
2022-10-31T13:42:24.892Z,15.38
2022-10-31T13:45:17.348Z,14.45
2022-10-31T13:48:31.762Z,13.50
2022-10-31T13:51:29.405Z,19.73
2022-10-31T13:54:33.658Z,19.55
2022-10-31T13:57:33.093Z,17.95
2022-10-31T14:00:28.115Z,17.15
2022-10-31T14:03:36.391Z,11.85
2022-10-31T14:06:47.849Z,12.60
2022-10-31T14:09:39.474Z,13.68
2022-10-31T14:12:31.258Z,16.27
2022-10-31T14:15:20.921Z,14.18
2022-10-31T14:18:22.272Z,17.08
2022-10-31T14:21:29.301Z,13.77
2022-10-31T14:24:18.244Z,10.93
2022-10-31T14:27:35.686Z,16.38
2022-10-31T14:30:25.536Z,12.77
2022-10-31T14:33:19.615Z,15.70
2022-10-31T14:36:16.055Z,11.70
2022-10-31T14:39:15.973Z,15.27
2022-10-31T14:42:19.427Z,20.38
2022-10-31T14:45:24.356Z,21.25
2022-10-31T14:48:30.728Z,15.63
2022-10-31T14:51:20.966Z,14.77
2022-10-31T14:54:14.482Z,14.13
2022-10-31T14:57:06.958Z,14.23
2022-10-31T15:00:00.791Z,14.07
2022-10-31T15:03:03.585Z,15.20
2022-10-31T15:05:54.513Z,18.55
2022-10-31T15:08:49.865Z,20.88
2022-10-31T15:11:41.136Z,13.45
2022-10-31T15:14:31.693Z,13.68
2022-10-31T15:17:19.033Z,12.00
2022-10-31T15:20:06.648Z,18.25
2022-10-31T15:22:53.786Z,20.05
2022-10-31T15:25:41.067Z,16.85
2022-10-31T15:28:28.927Z,21.73
2022-10-31T15:31:19.308Z,12.68
2022-10-31T15:34:09.875Z,18.58
2022-10-31T15:36:57.185Z,11.35
2022-10-31T15:39:45.662Z,21.08
2022-10-31T15:42:42.169Z,17.10
2022-10-31T15:45:31.406Z,16.13
2022-10-31T15:48:24.650Z,20.42
2022-10-31T15:51:12.023Z,13.98
2022-10-31T15:54:00.975Z,15.20
2022-10-31T15:56:48.217Z,14.63
2022-10-31T15:59:35.525Z,19.88
2022-10-31T16:02:25.579Z,16.75
2022-10-31T16:05:20.958Z,19.75
2022-10-31T16:08:26.847Z,23.30
2022-10-31T16:11:23.493Z,16.40
2022-10-31T16:14:25.460Z,16.33
2022-10-31T16:17:16.390Z,14.93
2022-10-31T16:20:06.392Z,24.92
2022-10-31T16:22:56.250Z,15.70
2022-10-31T16:25:43.699Z,21.10
2022-10-31T16:28:33.098Z,18.23
2022-10-31T16:31:32.113Z,17.98
2022-10-31T16:34:26.545Z,13.35
2022-10-31T16:37:14.362Z,17.42
2022-10-31T16:40:03.245Z,18.95
2022-10-31T16:42:50.993Z,18.40
2022-10-31T16:45:38.336Z,18.88
2022-10-31T16:48:25.415Z,17.58
2022-10-31T16:51:12.619Z,16.55
2022-10-31T16:53:59.608Z,15.93
2022-10-31T16:56:48.609Z,16.63
2022-10-31T16:59:36.910Z,15.00
2022-10-31T17:02:24.360Z,16.85
2022-10-31T17:05:14.587Z,23.08
2022-10-31T17:08:02.164Z,19.75
2022-10-31T17:10:52.813Z,19.27
2022-10-31T17:13:41.113Z,18.10
2022-10-31T17:16:28.103Z,21.85
2022-10-31T17:19:15.854Z,21.25
2022-10-31T17:22:03.614Z,13.18
2022-10-31T17:24:50.765Z,20.50
2022-10-31T17:27:38.008Z,15.15
2022-10-31T17:30:27.616Z,18.25
2022-10-31T17:33:16.057Z,18.17
2022-10-31T17:36:05.177Z,25.45
2022-10-31T17:38:52.058Z,19.75
2022-10-31T17:41:39.092Z,18.52
2022-10-31T17:44:26.337Z,19.60
2022-10-31T17:47:15.153Z,16.35
2022-10-31T17:50:01.971Z,17.27
2022-10-31T17:52:49.465Z,18.60
2022-10-31T17:55:37.704Z,18.48
2022-10-31T17:58:25.231Z,18.58
2022-10-31T18:01:14.206Z,23.73
2022-10-31T18:04:03.146Z,17.50
2022-10-31T18:06:51.171Z,19.58
2022-10-31T18:09:38.214Z,23.70
2022-10-31T18:12:25.176Z,27.05
2022-10-31T18:15:12.767Z,22.88
2022-10-31T18:18:00.415Z,18.73
2022-10-31T18:20:49.428Z,18.27
2022-10-31T18:23:36.919Z,19.95
2022-10-31T18:26:24.357Z,28.48
2022-10-31T18:29:12.593Z,25.10
2022-10-31T18:31:59.497Z,23.05
2022-10-31T18:34:46.599Z,18.30
2022-10-31T18:37:34.881Z,23.33
2022-10-31T18:40:22.642Z,28.42
2022-10-31T18:43:09.683Z,21.70
2022-10-31T18:45:58.164Z,23.77
2022-10-31T18:48:46.939Z,22.67
2022-10-31T18:51:34.345Z,28.60
2022-10-31T18:54:22.875Z,26.17
2022-10-31T18:57:09.734Z,25.50
2022-10-31T18:59:56.574Z,23.65
2022-10-31T19:02:43.737Z,23.20
2022-10-31T19:05:30.606Z,21.67
2022-10-31T19:08:17.820Z,28.80
2022-10-31T19:11:07.791Z,23.10
2022-10-31T19:13:55.265Z,25.95
2022-10-31T19:16:42.528Z,25.77
2022-10-31T19:19:29.531Z,35.63
2022-10-31T19:22:16.604Z,41.53
2022-10-31T19:25:07.653Z,37.05
2022-10-31T19:27:59.352Z,33.10
2022-10-31T19:30:55.607Z,32.88
2022-10-31T19:33:42.592Z,26.42
2022-10-31T19:36:30.552Z,30.85
2022-10-31T19:39:17.695Z,33.00
2022-10-31T19:42:05.285Z,26.40
2022-10-31T19:44:53.764Z,30.35
2022-10-31T19:47:41.067Z,22.35
2022-10-31T19:50:29.837Z,28.95
2022-10-31T19:53:16.957Z,23.90
2022-10-31T19:56:04.186Z,29.55
2022-10-31T19:58:51.641Z,29.27
2022-10-31T20:01:40.198Z,28.75
2022-10-31T20:04:27.409Z,25.67
2022-10-31T20:07:14.780Z,27.73
2022-10-31T20:10:01.917Z,25.95
2022-10-31T20:12:49.073Z,29.33
2022-10-31T20:15:36.382Z,28.75
2022-10-31T20:18:25.992Z,31.98
2022-10-31T20:21:15.510Z,34.33
2022-10-31T20:24:05.663Z,25.55
2022-10-31T20:26:52.775Z,27.30
2022-10-31T20:29:39.934Z,26.95
2022-10-31T20:32:26.811Z,26.38
2022-10-31T20:35:15.388Z,27.70
2022-10-31T20:38:04.869Z,27.33
2022-10-31T20:40:51.827Z,33.70
2022-10-31T20:43:39.415Z,22.48
2022-10-31T20:46:28.627Z,19.73
2022-10-31T20:49:15.935Z,25.75
2022-10-31T20:52:04.489Z,25.40
2022-10-31T20:54:51.599Z,27.08
2022-10-31T20:57:38.870Z,26.13
2022-10-31T21:00:26.046Z,29.95
2022-10-31T21:03:12.958Z,30.15
2022-10-31T21:06:02.157Z,26.42
2022-10-31T21:08:51.109Z,21.15
2022-10-31T21:11:38.415Z,24.08
2022-10-31T21:14:25.469Z,23.58
2022-10-31T21:17:12.411Z,26.85
2022-10-31T21:19:59.961Z,30.67
2022-10-31T21:22:46.994Z,33.70
2022-10-31T21:25:38.074Z,29.67
2022-10-31T21:28:25.320Z,31.60
2022-10-31T21:31:14.875Z,31.15
2022-10-31T21:34:02.122Z,24.98
2022-10-31T21:36:49.261Z,24.23
2022-10-31T21:39:38.597Z,23.80
2022-10-31T21:42:27.034Z,22.48
2022-10-31T21:45:14.488Z,20.67
2022-10-31T21:48:02.554Z,21.75
2022-10-31T21:50:49.802Z,20.80
2022-10-31T21:53:50.870Z,22.52
2022-10-31T21:56:36.656Z,20.27
2022-10-31T21:59:24.371Z,20.55
2022-10-31T22:02:12.181Z,21.50
2022-10-31T22:04:59.307Z,24.05
2022-10-31T22:07:46.486Z,23.95
2022-10-31T22:10:34.792Z,17.95
2022-10-31T22:13:21.950Z,18.95
2022-10-31T22:16:12.344Z,21.50
2022-10-31T22:19:05.475Z,22.23
2022-10-31T22:21:53.041Z,22.80
2022-10-31T22:24:40.253Z,27.38
2022-10-31T22:27:27.252Z,21.70
2022-10-31T22:30:14.508Z,20.63
2022-10-31T22:33:03.464Z,22.50
2022-10-31T22:35:50.904Z,22.45
2022-10-31T22:38:40.125Z,21.13
2022-10-31T22:41:29.201Z,24.13
2022-10-31T22:44:16.316Z,19.40
2022-10-31T22:47:03.414Z,19.85
2022-10-31T22:49:52.139Z,23.67
2022-10-31T22:52:38.864Z,19.45
2022-10-31T22:55:25.978Z,20.48
2022-10-31T22:58:13.981Z,22.35
2022-10-31T23:01:01.497Z,24.10
2022-10-31T23:03:49.199Z,20.35
2022-10-31T23:06:38.791Z,24.75
2022-10-31T23:09:26.197Z,19.55
2022-10-31T23:12:27.400Z,14.57
2022-10-31T23:15:13.380Z,21.23
2022-10-31T23:17:59.645Z,18.90
2022-10-31T23:20:51.302Z,20.63
2022-10-31T23:23:41.891Z,18.70
2022-10-31T23:26:43.253Z,20.92
2022-10-31T23:29:29.130Z,21.45
2022-10-31T23:32:18.813Z,21.23
2022-10-31T23:35:08.525Z,20.38
2022-10-31T23:37:55.879Z,17.25
2022-10-31T23:40:44.675Z,22.33
2022-10-31T23:43:31.964Z,17.75
2022-10-31T23:46:19.086Z,21.17
2022-10-31T23:49:05.995Z,22.67
2022-10-31T23:51:53.064Z,20.52
2022-10-31T23:54:40.520Z,19.85
2022-10-31T23:57:29.107Z,16.38
